createdAt,value
2022-12-03T00:04:49.308Z,100940.00
2022-12-03T00:07:27.412Z,100991.00
2022-12-03T00:10:08.931Z,100933.00
2022-12-03T00:13:07.631Z,101015.00
2022-12-03T00:15:53.265Z,100924.00
2022-12-03T00:18:37.568Z,100972.00
2022-12-03T00:21:28.048Z,100994.00
2022-12-03T00:24:04.201Z,101015.00
2022-12-03T00:27:11.723Z,100990.00
2022-12-03T00:29:48.269Z,100918.00
2022-12-03T00:32:28.534Z,100989.00
2022-12-03T00:35:09.125Z,100902.00
2022-12-03T00:37:55.800Z,100973.00
2022-12-03T00:40:32.570Z,100987.00
2022-12-03T00:43:28.594Z,100985.00
2022-12-03T00:46:06.875Z,100956.00
2022-12-03T00:49:27.242Z,100904.00
2022-12-03T00:52:33.053Z,100970.00
2022-12-03T00:55:11.496Z,100985.00
2022-12-03T00:57:49.842Z,100989.00
2022-12-03T01:00:36.172Z,100912.00
2022-12-03T01:03:12.545Z,100984.00
2022-12-03T01:05:48.528Z,100970.00
2022-12-03T01:08:23.676Z,100895.00
2022-12-03T01:11:00.934Z,100922.00
2022-12-03T01:13:35.878Z,100937.00
2022-12-03T01:16:13.232Z,100985.00
2022-12-03T01:18:48.329Z,100992.00
2022-12-03T01:21:23.926Z,100981.00
2022-12-03T01:25:14.878Z,100983.00
2022-12-03T01:27:55.104Z,100995.00
2022-12-03T01:30:50.261Z,101017.00
2022-12-03T01:33:24.633Z,100988.00
2022-12-03T01:36:07.363Z,101003.00
2022-12-03T01:38:45.140Z,100931.00
2022-12-03T01:41:25.712Z,100923.00
2022-12-03T01:44:04.932Z,100975.00
2022-12-03T01:47:01.507Z,100973.00
2022-12-03T01:50:07.148Z,100979.00
2022-12-03T01:52:46.955Z,100997.00
2022-12-03T01:55:32.888Z,100985.00
2022-12-03T01:58:08.920Z,100929.00
2022-12-03T02:00:47.648Z,100983.00
2022-12-03T02:03:31.878Z,100994.00
2022-12-03T02:06:35.916Z,100985.00
2022-12-03T02:09:23.546Z,100989.00
2022-12-03T02:11:59.304Z,100996.00
2022-12-03T02:15:03.931Z,100985.00
2022-12-03T02:17:46.236Z,100971.00
2022-12-03T02:20:31.912Z,100979.00
2022-12-03T02:23:37.583Z,100996.00
2022-12-03T02:26:20.902Z,100934.00
2022-12-03T02:29:24.527Z,100882.00
2022-12-03T02:32:04.786Z,100985.00
2022-12-03T02:34:44.033Z,100967.00
2022-12-03T02:37:26.611Z,100961.00
2022-12-03T02:40:28.486Z,100863.00
2022-12-03T02:43:14.072Z,100960.00
2022-12-03T02:45:59.657Z,100938.00
2022-12-03T02:48:42.677Z,100958.00
2022-12-03T02:51:25.504Z,100940.00
2022-12-03T02:54:05.943Z,100931.00
2022-12-03T02:56:40.871Z,100964.00
2022-12-03T02:59:29.936Z,100972.00
2022-12-03T03:02:12.385Z,100903.00
2022-12-03T03:04:50.578Z,100963.00
2022-12-03T03:07:26.031Z,100914.00
2022-12-03T03:10:05.774Z,100902.00
2022-12-03T03:12:46.709Z,100910.00
2022-12-03T03:15:25.532Z,100933.00
2022-12-03T03:18:03.551Z,100951.00
2022-12-03T03:20:40.323Z,100962.00
2022-12-03T03:23:41.670Z,100954.00
2022-12-03T03:26:24.069Z,100883.00
2022-12-03T03:29:03.602Z,100880.00
2022-12-03T03:31:51.885Z,100902.00
2022-12-03T03:34:41.837Z,100953.00
2022-12-03T03:37:38.889Z,100918.00
2022-12-03T03:40:19.760Z,100937.00
2022-12-03T03:43:10.151Z,100961.00
2022-12-03T03:46:00.839Z,100960.00
2022-12-03T03:48:50.948Z,100894.00
2022-12-03T03:51:27.109Z,100893.00
2022-12-03T03:54:19.755Z,100893.00
2022-12-03T03:57:04.433Z,100853.00
2022-12-03T03:59:42.629Z,100863.00
2022-12-03T04:02:30.163Z,100888.00
2022-12-03T04:05:31.824Z,100879.00
2022-12-03T04:08:20.458Z,100935.00
2022-12-03T04:11:12.886Z,100901.00
2022-12-03T04:13:47.965Z,100902.00
2022-12-03T04:16:23.539Z,100925.00
2022-12-03T04:19:29.348Z,100857.00
2022-12-03T04:22:43.797Z,100944.00
2022-12-03T04:25:36.046Z,100931.00
2022-12-03T04:28:31.552Z,100898.00
2022-12-03T04:31:26.453Z,100897.00
2022-12-03T04:34:30.125Z,100844.00
2022-12-03T04:38:01.509Z,100927.00
2022-12-03T04:41:45.918Z,100851.00
2022-12-03T04:44:39.877Z,100921.00
2022-12-03T04:47:35.502Z,100903.00
2022-12-03T04:50:22.224Z,100905.00
2022-12-03T04:53:03.601Z,100824.00
2022-12-03T04:55:51.704Z,100914.00
2022-12-03T04:58:37.501Z,100914.00
2022-12-03T05:01:27.012Z,100865.00
2022-12-03T05:04:21.797Z,100826.00
2022-12-03T05:07:04.205Z,100908.00
2022-12-03T05:09:50.330Z,100915.00
2022-12-03T05:12:39.355Z,100900.00
2022-12-03T05:15:24.723Z,100913.00
2022-12-03T05:18:06.010Z,100902.00
2022-12-03T05:21:10.226Z,100905.00
2022-12-03T05:24:02.543Z,100898.00
2022-12-03T05:26:41.879Z,100818.00
2022-12-03T05:29:26.947Z,100888.00
2022-12-03T05:32:15.629Z,100920.00
2022-12-03T05:34:56.511Z,100908.00
2022-12-03T05:37:37.059Z,100885.00
2022-12-03T05:40:30.637Z,100905.00
2022-12-03T05:43:50.133Z,100863.00
2022-12-03T05:47:01.704Z,100820.00
2022-12-03T05:52:53.130Z,100906.00
2022-12-03T05:55:52.163Z,100844.00
2022-12-03T05:59:19.803Z,100905.00
2022-12-03T06:01:55.867Z,100889.00
2022-12-03T06:04:33.556Z,100928.00
2022-12-03T06:07:38.829Z,100907.00
2022-12-03T06:10:36.690Z,100853.00
2022-12-03T06:13:42.035Z,100904.00
2022-12-03T06:19:35.334Z,100861.00
2022-12-03T06:22:14.431Z,100846.00
2022-12-03T06:25:09.372Z,100908.00
2022-12-03T06:27:47.541Z,100837.00
2022-12-03T06:30:39.369Z,100806.00
2022-12-03T06:34:28.183Z,100898.00
2022-12-03T06:37:08.282Z,100838.00
2022-12-03T06:39:50.516Z,100910.00
2022-12-03T06:42:26.541Z,100810.00
2022-12-03T06:45:06.514Z,100815.00
2022-12-03T06:48:08.689Z,100814.00
2022-12-03T06:50:50.182Z,100911.00
2022-12-03T06:53:40.665Z,100913.00
2022-12-03T06:56:22.137Z,100907.00
2022-12-03T06:59:05.473Z,100916.00
2022-12-03T07:01:48.107Z,100920.00
2022-12-03T07:04:28.852Z,100928.00
2022-12-03T07:07:20.793Z,100831.00
2022-12-03T07:10:05.668Z,100908.00
2022-12-03T07:12:52.987Z,100899.00
2022-12-03T07:15:41.330Z,100850.00
2022-12-03T07:21:22.330Z,100870.00
2022-12-03T07:24:06.754Z,100860.00
2022-12-03T07:26:47.445Z,100903.00
2022-12-03T07:29:25.570Z,100902.00
2022-12-03T07:32:05.685Z,100908.00
2022-12-03T07:35:03.887Z,100903.00
2022-12-03T07:38:10.162Z,100868.00
2022-12-03T07:41:06.318Z,100878.00
2022-12-03T07:43:51.444Z,100847.00
2022-12-03T07:46:32.469Z,100901.00
2022-12-03T07:49:20.634Z,100853.00
2022-12-03T07:51:59.678Z,100848.00
2022-12-03T07:54:37.794Z,100906.00
2022-12-03T07:57:16.607Z,100896.00
2022-12-03T08:00:21.761Z,100894.00
2022-12-03T08:02:59.978Z,100898.00
2022-12-03T08:06:14.963Z,100874.00
2022-12-03T08:12:25.714Z,100855.00
2022-12-03T08:15:17.342Z,100914.00
2022-12-03T08:18:04.254Z,100890.00
2022-12-03T08:20:45.543Z,100893.00
2022-12-03T08:23:27.153Z,100892.00
2022-12-03T08:26:21.932Z,100836.00
2022-12-03T08:29:04.035Z,100832.00
2022-12-03T08:32:13.417Z,100884.00
2022-12-03T08:35:09.555Z,100851.00
2022-12-03T08:37:47.688Z,100891.00
2022-12-03T08:40:31.431Z,100831.00
2022-12-03T08:43:24.347Z,100919.00
2022-12-03T08:46:01.325Z,100823.00
2022-12-03T08:49:16.433Z,100803.00
2022-12-03T08:52:25.672Z,100885.00
2022-12-03T08:55:41.711Z,100843.00
2022-12-03T09:03:24.596Z,100912.00
2022-12-03T09:06:53.152Z,100844.00
2022-12-03T09:09:48.327Z,100901.00
2022-12-03T09:12:34.852Z,100871.00
2022-12-03T09:15:23.465Z,100896.00
2022-12-03T09:18:25.052Z,100907.00
2022-12-03T09:21:04.697Z,100847.00
2022-12-03T09:23:48.026Z,100850.00
2022-12-03T09:26:52.972Z,100902.00
2022-12-03T09:29:43.042Z,100923.00
2022-12-03T09:32:19.879Z,100838.00
2022-12-03T09:35:09.608Z,100909.00
2022-12-03T09:38:05.022Z,100911.00
2022-12-03T09:46:51.854Z,100843.00
2022-12-03T09:49:46.864Z,100912.00
2022-12-03T09:52:31.096Z,100852.00
2022-12-03T09:55:18.524Z,100908.00
2022-12-03T09:58:06.272Z,100890.00
2022-12-03T10:01:17.163Z,100908.00
2022-12-03T10:03:56.986Z,100894.00
2022-12-03T10:07:09.491Z,100895.00
2022-12-03T10:10:46.694Z,100874.00
2022-12-03T10:13:38.734Z,100871.00
2022-12-03T10:16:21.598Z,100798.00
2022-12-03T10:19:05.060Z,100793.00
2022-12-03T10:21:46.963Z,100816.00
2022-12-03T10:28:05.253Z,100803.00
2022-12-03T10:34:14.912Z,100783.00
2022-12-03T10:37:25.308Z,100796.00
2022-12-03T10:40:11.691Z,100788.00
2022-12-03T10:43:28.476Z,100787.00
2022-12-03T10:46:44.888Z,100845.00
2022-12-03T10:49:24.202Z,100843.00
2022-12-03T10:52:04.667Z,100795.00
2022-12-03T10:54:52.621Z,100836.00
2022-12-03T10:57:32.169Z,100831.00
2022-12-03T11:00:09.443Z,100826.00
2022-12-03T11:02:58.719Z,100820.00
2022-12-03T11:06:03.051Z,100816.00
2022-12-03T11:09:01.412Z,100771.00
2022-12-03T11:11:45.024Z,100766.00
2022-12-03T11:15:10.274Z,100797.00
2022-12-03T11:18:19.105Z,100765.00
2022-12-03T11:21:09.374Z,100809.00
2022-12-03T11:24:40.841Z,100817.00
2022-12-03T11:27:35.258Z,100735.00
2022-12-03T11:31:16.747Z,100795.00
2022-12-03T11:35:00.009Z,100799.00
2022-12-03T11:38:10.629Z,100738.00
2022-12-03T11:48:57.874Z,100785.00
2022-12-03T11:51:41.873Z,100777.00
2022-12-03T11:54:37.548Z,100752.00
2022-12-03T11:57:46.686Z,100791.00
2022-12-03T12:00:54.316Z,100720.00
2022-12-03T12:03:52.243Z,100762.00
2022-12-03T12:06:57.615Z,100785.00
2022-12-03T12:10:00.802Z,100742.00
2022-12-03T12:13:30.222Z,100755.00
2022-12-03T12:16:39.611Z,100747.00
2022-12-03T12:19:52.661Z,100747.00
2022-12-03T12:25:53.733Z,100757.00
2022-12-03T12:28:37.327Z,100723.00
2022-12-03T12:31:17.076Z,100722.00
2022-12-03T12:33:59.014Z,100680.00
2022-12-03T12:36:50.829Z,100672.00
2022-12-03T12:39:30.906Z,100639.00
2022-12-03T12:42:39.011Z,100688.00
2022-12-03T12:45:27.975Z,100701.00
2022-12-03T12:48:18.940Z,100729.00
2022-12-03T12:51:08.659Z,100662.00
2022-12-03T12:54:17.932Z,100674.00
2022-12-03T13:00:12.783Z,100711.00
2022-12-03T13:03:00.709Z,100654.00
2022-12-03T13:05:44.555Z,100653.00
2022-12-03T13:08:40.821Z,100646.00
2022-12-03T13:11:52.870Z,100691.00
2022-12-03T13:14:55.962Z,100694.00
2022-12-03T13:17:37.197Z,100600.00
2022-12-03T13:20:37.091Z,100656.00
2022-12-03T13:26:43.314Z,100630.00
2022-12-03T13:29:25.115Z,100692.00
2022-12-03T13:32:06.125Z,100666.00
2022-12-03T13:34:41.501Z,100673.00
2022-12-03T13:37:39.730Z,100694.00
2022-12-03T13:40:49.784Z,100616.00
2022-12-03T13:47:48.776Z,100625.00
2022-12-03T13:51:04.497Z,100681.00
2022-12-03T13:54:17.715Z,100629.00
2022-12-03T14:00:36.916Z,100672.00
2022-12-03T14:03:29.258Z,100622.00
2022-12-03T14:06:08.273Z,100681.00
2022-12-03T14:09:11.679Z,100680.00
2022-12-03T14:12:34.423Z,100598.00
2022-12-03T14:15:13.178Z,100667.00
2022-12-03T14:18:03.124Z,100664.00
2022-12-03T14:20:43.703Z,100621.00
2022-12-03T14:23:46.077Z,100611.00
2022-12-03T14:26:25.745Z,100678.00
2022-12-03T14:29:10.081Z,100629.00
2022-12-03T14:31:50.064Z,100635.00
2022-12-03T14:34:42.047Z,100607.00
2022-12-03T14:37:19.234Z,100622.00
2022-12-03T14:39:56.453Z,100628.00
2022-12-03T14:42:49.883Z,100649.00
2022-12-03T14:45:32.055Z,100678.00
2022-12-03T14:48:12.971Z,100647.00
2022-12-03T14:50:56.985Z,100680.00
2022-12-03T14:53:36.946Z,100611.00
2022-12-03T14:56:15.249Z,100668.00
2022-12-03T14:58:52.123Z,100677.00
2022-12-03T15:01:30.023Z,100662.00
2022-12-03T15:04:08.671Z,100676.00
2022-12-03T15:06:55.687Z,100587.00
2022-12-03T15:10:22.842Z,100670.00
2022-12-03T15:12:58.057Z,100606.00
2022-12-03T15:15:38.211Z,100645.00
2022-12-03T15:18:43.882Z,100654.00
2022-12-03T15:21:25.177Z,100669.00
2022-12-03T15:24:06.047Z,100672.00
2022-12-03T15:27:26.750Z,100657.00
2022-12-03T15:30:10.673Z,100667.00
2022-12-03T15:35:46.553Z,100644.00
2022-12-03T15:39:06.903Z,100650.00
2022-12-03T15:42:15.798Z,100662.00
2022-12-03T15:44:58.800Z,100674.00
2022-12-03T15:47:53.507Z,100663.00
2022-12-03T15:50:33.525Z,100637.00
2022-12-03T15:53:11.732Z,100653.00
2022-12-03T15:56:07.755Z,100642.00
2022-12-03T15:58:44.341Z,100681.00
2022-12-03T16:01:29.045Z,100661.00
2022-12-03T16:04:05.792Z,100588.00
2022-12-03T16:06:43.939Z,100608.00
2022-12-03T16:09:35.933Z,100601.00
2022-12-03T16:12:12.530Z,100649.00
2022-12-03T16:14:49.204Z,100613.00
2022-12-03T16:17:27.973Z,100627.00
2022-12-03T16:20:07.835Z,100658.00
2022-12-03T16:22:54.496Z,100596.00
2022-12-03T16:25:35.403Z,100669.00
2022-12-03T16:28:12.281Z,100633.00
2022-12-03T16:30:51.103Z,100631.00
2022-12-03T16:33:45.127Z,100635.00
2022-12-03T16:36:36.634Z,100636.00
2022-12-03T16:39:22.925Z,100609.00
2022-12-03T16:42:00.015Z,100619.00
2022-12-03T16:44:51.034Z,100662.00
2022-12-03T16:47:33.632Z,100657.00
2022-12-03T16:50:27.337Z,100611.00
2022-12-03T16:53:05.937Z,100653.00
2022-12-03T16:55:45.830Z,100675.00
2022-12-03T16:58:32.136Z,100605.00
2022-12-03T17:01:25.988Z,100657.00
2022-12-03T17:04:19.315Z,100646.00
2022-12-03T17:06:59.955Z,100661.00
2022-12-03T17:09:37.650Z,100658.00
2022-12-03T17:12:13.633Z,100612.00
2022-12-03T17:15:15.472Z,100658.00
2022-12-03T17:18:10.508Z,100652.00
2022-12-03T17:20:45.392Z,100648.00
2022-12-03T17:23:29.757Z,100628.00
2022-12-03T17:26:37.587Z,100591.00
2022-12-03T17:29:27.443Z,100654.00
2022-12-03T17:32:19.987Z,100581.00
2022-12-03T17:35:08.566Z,100653.00
2022-12-03T17:37:57.700Z,100573.00
2022-12-03T17:41:03.681Z,100581.00
2022-12-03T17:44:12.115Z,100659.00
2022-12-03T17:47:28.701Z,100632.00
2022-12-03T17:50:22.793Z,100638.00
2022-12-03T17:56:12.074Z,100625.00
2022-12-03T17:59:02.574Z,100625.00
2022-12-03T18:05:20.398Z,100602.00
2022-12-03T18:34:54.391Z,100565.00
2022-12-03T18:37:49.102Z,100628.00
2022-12-03T18:41:00.901Z,100553.00
2022-12-03T18:43:50.150Z,100617.00
2022-12-03T18:49:59.879Z,100565.00
2022-12-03T18:53:17.584Z,100617.00
2022-12-03T18:55:59.124Z,100619.00
2022-12-03T18:58:38.585Z,100566.00
2022-12-03T19:02:00.972Z,100610.00
2022-12-03T19:04:36.347Z,100623.00
2022-12-03T19:10:22.507Z,100582.00
2022-12-03T19:13:05.783Z,100619.00
2022-12-03T19:15:55.685Z,100577.00
2022-12-03T19:18:32.115Z,100542.00
2022-12-03T19:21:10.602Z,100608.00
2022-12-03T19:24:22.028Z,100616.00
2022-12-03T19:26:43.495Z,100552.00
2022-12-03T19:29:30.708Z,100606.00
2022-12-03T19:32:22.415Z,100605.00
2022-12-03T19:35:01.953Z,100598.00
2022-12-03T19:37:42.696Z,100622.00
2022-12-03T19:40:19.820Z,100607.00
2022-12-03T19:42:54.561Z,100580.00
2022-12-03T19:45:37.913Z,100579.00
2022-12-03T19:48:17.621Z,100531.00
2022-12-03T19:51:51.957Z,100614.00
2022-12-03T19:55:08.218Z,100602.00
2022-12-03T19:57:48.097Z,100612.00
2022-12-03T20:00:32.457Z,100556.00
2022-12-03T20:03:11.461Z,100539.00
2022-12-03T20:06:00.854Z,100554.00
2022-12-03T20:08:39.275Z,100608.00
2022-12-03T20:11:17.775Z,100608.00
2022-12-03T20:14:04.388Z,100587.00
2022-12-03T20:16:43.318Z,100608.00
2022-12-03T20:19:24.066Z,100558.00
2022-12-03T20:22:03.027Z,100614.00
2022-12-03T20:25:07.049Z,100601.00
2022-12-03T20:27:42.870Z,100561.00
2022-12-03T20:30:28.558Z,100588.00
2022-12-03T20:33:07.800Z,100526.00
2022-12-03T20:35:44.775Z,100593.00
2022-12-03T20:38:46.123Z,100595.00
2022-12-03T20:41:39.937Z,100546.00
2022-12-03T20:44:18.448Z,100608.00
2022-12-03T20:46:58.029Z,100606.00
2022-12-03T20:49:46.237Z,100573.00
2022-12-03T20:52:24.268Z,100594.00
2022-12-03T20:55:12.344Z,100589.00
2022-12-03T20:58:08.417Z,100615.00
2022-12-03T21:00:46.971Z,100606.00
2022-12-03T21:03:24.994Z,100583.00
2022-12-03T21:06:04.667Z,100593.00
2022-12-03T21:08:54.079Z,100495.00
2022-12-03T21:11:42.781Z,100504.00
2022-12-03T21:14:21.498Z,100596.00
2022-12-03T21:17:09.617Z,100600.00
2022-12-03T21:19:47.864Z,100602.00
2022-12-03T21:22:28.647Z,100592.00
2022-12-03T21:25:32.957Z,100550.00
2022-12-03T21:28:32.779Z,100515.00
2022-12-03T21:31:17.709Z,100554.00
2022-12-03T21:33:54.223Z,100503.00
2022-12-03T21:36:41.008Z,100567.00
2022-12-03T21:39:29.402Z,100544.00
2022-12-03T21:42:33.959Z,100581.00
2022-12-03T21:45:55.932Z,100595.00
2022-12-03T21:48:39.263Z,100558.00
2022-12-03T21:51:33.666Z,100573.00
2022-12-03T21:54:46.679Z,100571.00
2022-12-03T21:57:58.379Z,100520.00
2022-12-03T22:00:44.965Z,100582.00
2022-12-03T22:03:24.603Z,100479.00
2022-12-03T22:06:15.010Z,100468.00
2022-12-03T22:08:51.709Z,100564.00
2022-12-03T22:11:36.252Z,100513.00
2022-12-03T22:14:13.312Z,100578.00
2022-12-03T22:17:44.072Z,100564.00
2022-12-03T22:20:34.972Z,100562.00
2022-12-03T22:23:16.365Z,100538.00
2022-12-03T22:26:07.041Z,100563.00
2022-12-03T22:29:05.245Z,100483.00
2022-12-03T22:31:47.659Z,100563.00
2022-12-03T22:34:26.559Z,100559.00
2022-12-03T22:37:06.703Z,100541.00
2022-12-03T22:39:42.756Z,100544.00
2022-12-03T22:42:30.075Z,100544.00
2022-12-03T22:45:23.042Z,100567.00
2022-12-03T22:48:04.154Z,100486.00
2022-12-03T22:50:49.797Z,100481.00
2022-12-03T22:54:04.360Z,100566.00
2022-12-03T22:56:46.089Z,100557.00
2022-12-03T22:59:22.935Z,100551.00
2022-12-03T23:02:06.051Z,100550.00
2022-12-03T23:04:48.568Z,100552.00
2022-12-03T23:07:42.586Z,100480.00
2022-12-03T23:10:35.440Z,100540.00
2022-12-03T23:13:21.186Z,100456.00
2022-12-03T23:16:12.052Z,100530.00
2022-12-03T23:18:53.495Z,100533.00
2022-12-03T23:21:37.016Z,100539.00
2022-12-03T23:24:21.255Z,100533.00
2022-12-03T23:27:00.620Z,100469.00
2022-12-03T23:29:47.020Z,100527.00
2022-12-03T23:32:40.263Z,100483.00
2022-12-03T23:35:54.804Z,100509.00
2022-12-03T23:38:53.254Z,100517.00
2022-12-03T23:41:42.509Z,100489.00
2022-12-03T23:44:26.326Z,100457.00
2022-12-03T23:47:32.695Z,100481.00
2022-12-03T23:50:17.238Z,100481.00
2022-12-03T23:52:55.440Z,100481.00
2022-12-03T23:55:49.750Z,100507.00
